createdAt,value
2023-02-23T00:02:06.279Z,53.73
2023-02-23T00:04:34.074Z,56.73
2023-02-23T00:07:00.923Z,54.50
2023-02-23T00:09:35.172Z,55.57
2023-02-23T00:12:09.230Z,57.97
2023-02-23T00:14:37.777Z,57.53
2023-02-23T00:17:05.190Z,61.83
2023-02-23T00:19:33.470Z,53.60
2023-02-23T00:22:01.089Z,53.70
2023-02-23T00:24:27.641Z,54.33
2023-02-23T00:26:54.153Z,58.03
2023-02-23T00:29:22.810Z,54.27
2023-02-23T00:31:50.979Z,54.00
2023-02-23T00:34:21.259Z,51.63
2023-02-23T00:36:51.022Z,54.73
2023-02-23T00:39:26.499Z,59.43
2023-02-23T00:41:53.820Z,54.77
2023-02-23T00:44:21.748Z,53.43
2023-02-23T00:46:52.239Z,51.80
2023-02-23T00:49:20.821Z,55.97
2023-02-23T00:51:47.830Z,54.57
2023-02-23T00:54:15.900Z,55.80
2023-02-23T00:56:42.627Z,52.50
2023-02-23T00:59:09.153Z,52.50
2023-02-23T01:01:37.411Z,55.27
2023-02-23T01:04:05.261Z,56.80
2023-02-23T01:06:32.065Z,52.57
2023-02-23T01:08:58.870Z,53.03
2023-02-23T01:11:27.908Z,55.03
2023-02-23T01:13:58.158Z,60.17
2023-02-23T01:16:28.918Z,51.67
2023-02-23T01:18:57.877Z,50.27
2023-02-23T01:21:30.638Z,59.77
2023-02-23T01:23:57.351Z,54.80
2023-02-23T01:26:26.739Z,51.87
2023-02-23T01:29:00.606Z,56.53
2023-02-23T01:31:28.705Z,57.10
2023-02-23T01:34:01.090Z,70.07
2023-02-23T01:36:32.028Z,54.90
2023-02-23T01:39:00.086Z,63.40
2023-02-23T01:41:28.712Z,59.27
2023-02-23T01:43:55.472Z,50.83
2023-02-23T01:46:22.131Z,60.40
2023-02-23T01:48:48.865Z,55.83
2023-02-23T01:51:20.927Z,57.00
2023-02-23T01:53:58.191Z,50.47
2023-02-23T01:56:30.087Z,50.40
2023-02-23T01:58:59.251Z,51.10
2023-02-23T02:01:25.764Z,52.40
2023-02-23T02:03:56.793Z,54.60
2023-02-23T02:06:28.785Z,51.53
2023-02-23T02:09:00.994Z,49.67
2023-02-23T02:11:36.757Z,61.07
2023-02-23T02:14:17.307Z,54.73
2023-02-23T02:17:30.613Z,52.67
2023-02-23T02:20:31.494Z,56.80
2023-02-23T02:23:27.395Z,51.30
2023-02-23T02:26:11.636Z,56.43
2023-02-23T02:28:59.670Z,53.03
2023-02-23T02:31:32.122Z,53.10
2023-02-23T02:34:25.463Z,58.53
2023-02-23T02:37:34.663Z,52.40
2023-02-23T02:40:16.467Z,54.10
2023-02-23T02:43:14.941Z,54.27
2023-02-23T02:45:55.262Z,53.47
2023-02-23T02:48:46.617Z,47.43
2023-02-23T02:51:28.360Z,50.97
2023-02-23T02:54:10.521Z,54.93
2023-02-23T02:56:42.908Z,62.10
2023-02-23T02:59:31.877Z,59.43
2023-02-23T03:02:17.816Z,54.23
2023-02-23T03:05:02.697Z,59.40
2023-02-23T03:07:55.234Z,58.80
2023-02-23T03:10:54.163Z,63.37
2023-02-23T03:13:49.169Z,57.53
2023-02-23T03:16:59.074Z,57.17
2023-02-23T03:19:49.038Z,59.93
2023-02-23T03:22:42.299Z,56.40
2023-02-23T03:25:37.174Z,58.30
2023-02-23T03:28:40.391Z,61.60
2023-02-23T03:31:48.232Z,55.77
2023-02-23T03:34:37.383Z,56.70
2023-02-23T03:37:34.806Z,53.60
2023-02-23T03:40:37.395Z,48.33
2023-02-23T03:43:28.311Z,53.83
2023-02-23T03:46:15.649Z,54.70
2023-02-23T03:49:02.921Z,50.23
2023-02-23T03:51:52.395Z,47.70
2023-02-23T03:54:45.713Z,47.97
2023-02-23T03:57:35.647Z,47.73
2023-02-23T04:00:26.949Z,48.10
2023-02-23T04:03:13.396Z,57.33
2023-02-23T04:06:00.677Z,59.17
2023-02-23T04:08:52.438Z,56.43
2023-02-23T04:11:45.737Z,63.97
2023-02-23T04:14:19.518Z,66.80
2023-02-23T04:16:47.225Z,66.73
2023-02-23T04:19:14.012Z,69.07
2023-02-23T04:21:40.499Z,75.67
2023-02-23T04:24:06.980Z,72.03
2023-02-23T04:26:33.421Z,80.03
2023-02-23T04:28:59.906Z,78.20
2023-02-23T04:31:27.112Z,70.07
2023-02-23T04:33:53.771Z,73.60
2023-02-23T04:36:20.236Z,76.00
2023-02-23T04:38:46.672Z,75.83
2023-02-23T04:41:13.103Z,81.50
2023-02-23T04:43:39.562Z,75.17
2023-02-23T04:46:05.990Z,71.00
2023-02-23T04:48:32.513Z,82.40
2023-02-23T04:50:59.207Z,81.37
2023-02-23T04:53:26.063Z,80.77
2023-02-23T04:55:52.701Z,75.97
2023-02-23T04:58:19.139Z,84.03
2023-02-23T05:00:45.710Z,88.10
2023-02-23T05:03:12.806Z,85.37
2023-02-23T05:05:39.750Z,84.10
2023-02-23T05:08:06.310Z,78.83
2023-02-23T05:10:32.842Z,82.43
2023-02-23T05:13:01.060Z,79.67
2023-02-23T05:15:27.992Z,75.00
2023-02-23T05:17:55.801Z,82.17
2023-02-23T05:20:22.473Z,82.17
2023-02-23T05:22:48.956Z,81.50
2023-02-23T05:25:15.483Z,81.50
2023-02-23T05:27:41.945Z,86.70
2023-02-23T05:30:10.002Z,81.67
2023-02-23T05:32:36.609Z,88.50
2023-02-23T05:35:03.631Z,91.30
2023-02-23T05:37:30.147Z,84.63
2023-02-23T05:39:56.571Z,83.60
2023-02-23T05:42:23.015Z,83.17
2023-02-23T05:44:49.463Z,82.07
2023-02-23T05:47:15.889Z,75.73
2023-02-23T05:49:42.724Z,83.07
2023-02-23T05:52:09.267Z,79.73
2023-02-23T05:54:35.684Z,79.77
2023-02-23T05:57:02.171Z,78.20
2023-02-23T05:59:28.888Z,88.83
2023-02-23T06:01:55.402Z,85.83
2023-02-23T06:04:23.291Z,80.53
2023-02-23T06:06:50.062Z,79.50
2023-02-23T06:09:16.587Z,75.73
2023-02-23T06:11:43.138Z,76.17
2023-02-23T06:14:09.642Z,81.70
2023-02-23T06:16:36.307Z,74.70
2023-02-23T06:19:02.995Z,78.27
2023-02-23T06:21:29.529Z,70.07
2023-02-23T06:23:57.166Z,75.60
2023-02-23T06:26:23.574Z,75.70
2023-02-23T06:28:50.566Z,83.57
2023-02-23T06:31:17.257Z,76.53
2023-02-23T06:33:43.865Z,76.60
2023-02-23T06:36:10.477Z,77.80
2023-02-23T06:38:38.078Z,83.57
2023-02-23T06:41:09.296Z,69.83
2023-02-23T06:43:36.244Z,68.50
2023-02-23T06:46:03.318Z,73.63
2023-02-23T06:48:29.838Z,72.60
2023-02-23T06:50:59.087Z,77.47
2023-02-23T06:53:25.582Z,71.53
2023-02-23T06:55:52.004Z,75.70
2023-02-23T06:58:18.459Z,75.57
2023-02-23T07:00:44.878Z,74.50
2023-02-23T07:03:11.482Z,74.97
2023-02-23T07:05:37.964Z,78.30
2023-02-23T07:08:05.472Z,78.93
2023-02-23T07:10:32.244Z,73.67
2023-02-23T07:12:59.626Z,74.97
2023-02-23T07:15:26.236Z,73.70
2023-02-23T07:17:52.844Z,78.23
2023-02-23T07:20:19.706Z,76.50
2023-02-23T07:22:46.195Z,75.87
2023-02-23T07:25:12.637Z,88.50
2023-02-23T07:27:39.496Z,80.47
2023-02-23T07:30:06.717Z,82.50
2023-02-23T07:32:33.283Z,77.30
2023-02-23T07:34:59.817Z,82.93
2023-02-23T07:37:26.360Z,82.03
2023-02-23T07:39:52.841Z,88.83
2023-02-23T07:42:19.248Z,84.17
2023-02-23T07:44:45.692Z,83.67
2023-02-23T07:47:13.407Z,83.40
2023-02-23T07:49:39.869Z,90.30
2023-02-23T07:52:06.550Z,85.87
2023-02-23T07:54:33.622Z,80.77
2023-02-23T07:57:00.265Z,88.93
2023-02-23T07:59:26.839Z,88.50
2023-02-23T08:01:53.304Z,86.93
2023-02-23T08:04:19.979Z,85.60
2023-02-23T08:06:46.409Z,86.30
2023-02-23T08:09:12.976Z,87.10
2023-02-23T08:11:40.108Z,90.40
2023-02-23T08:14:06.584Z,94.70
2023-02-23T08:16:33.700Z,83.43
2023-02-23T08:19:01.162Z,87.67
2023-02-23T08:21:29.227Z,86.00
2023-02-23T08:23:56.904Z,82.93
2023-02-23T08:26:25.379Z,77.43
2023-02-23T08:28:52.843Z,78.50
2023-02-23T08:31:22.321Z,77.07
2023-02-23T08:33:49.792Z,79.47
2023-02-23T08:36:16.414Z,75.10
2023-02-23T08:38:43.041Z,76.90
2023-02-23T08:41:09.729Z,72.47
2023-02-23T08:43:36.393Z,77.50
2023-02-23T08:46:02.865Z,75.27
2023-02-23T08:48:29.303Z,78.37
2023-02-23T08:50:57.567Z,74.77
2023-02-23T08:53:25.710Z,86.00
2023-02-23T08:56:11.231Z,87.47
2023-02-23T08:58:37.736Z,108.50
2023-02-23T09:01:05.460Z,108.53
2023-02-23T09:03:35.263Z,112.77
2023-02-23T09:06:10.550Z,130.43
2023-02-23T09:08:37.248Z,138.63
2023-02-23T09:11:03.920Z,132.33
2023-02-23T09:13:30.368Z,135.03
2023-02-23T09:15:57.004Z,134.67
2023-02-23T09:18:29.461Z,128.00
2023-02-23T09:20:56.595Z,125.80
2023-02-23T09:23:24.178Z,132.80
2023-02-23T09:25:50.727Z,122.97
2023-02-23T09:28:19.725Z,132.87
2023-02-23T09:30:47.128Z,119.70
2023-02-23T09:33:14.221Z,123.10
2023-02-23T09:35:41.370Z,125.40
2023-02-23T09:38:08.832Z,121.50
2023-02-23T09:40:53.382Z,123.17
2023-02-23T09:43:45.185Z,127.00
2023-02-23T09:46:29.402Z,112.87
2023-02-23T09:48:58.836Z,119.67
2023-02-23T09:51:26.085Z,105.63
2023-02-23T09:53:55.561Z,111.70
2023-02-23T09:56:43.989Z,108.17
2023-02-23T09:59:15.603Z,110.67
2023-02-23T10:01:48.296Z,102.20
2023-02-23T10:04:26.816Z,106.67
2023-02-23T10:07:15.210Z,100.77
2023-02-23T10:09:41.561Z,101.43
2023-02-23T10:12:27.039Z,97.07
2023-02-23T10:15:01.117Z,98.13
2023-02-23T10:17:55.568Z,108.40
2023-02-23T10:20:42.207Z,112.17
2023-02-23T10:23:16.923Z,109.30
2023-02-23T10:25:48.054Z,101.13
2023-02-23T10:28:21.829Z,107.57
2023-02-23T10:30:50.644Z,101.43
2023-02-23T10:33:38.199Z,103.03
2023-02-23T10:36:19.665Z,96.50
2023-02-23T10:38:46.735Z,93.00
2023-02-23T10:41:14.975Z,93.27
2023-02-23T10:43:41.970Z,92.67
2023-02-23T10:46:19.030Z,93.10
2023-02-23T10:48:47.625Z,91.93
2023-02-23T10:51:28.426Z,83.30
2023-02-23T10:53:55.572Z,88.93
2023-02-23T10:56:23.315Z,87.53
2023-02-23T10:58:49.719Z,95.43
2023-02-23T11:01:32.843Z,96.37
2023-02-23T11:04:32.743Z,91.30
2023-02-23T11:07:16.516Z,87.57
2023-02-23T11:09:47.556Z,81.73
2023-02-23T11:12:22.390Z,84.17
2023-02-23T11:14:54.349Z,85.53
2023-02-23T11:17:37.714Z,84.37
2023-02-23T11:20:43.158Z,85.80
2023-02-23T11:23:16.845Z,80.83
2023-02-23T11:25:45.871Z,86.67
2023-02-23T11:28:25.073Z,78.63
2023-02-23T11:30:51.684Z,81.60
2023-02-23T11:33:25.413Z,79.63
2023-02-23T11:36:17.601Z,78.07
2023-02-23T11:38:46.733Z,76.40
2023-02-23T11:41:24.425Z,75.00
2023-02-23T11:43:56.857Z,72.77
2023-02-23T11:46:24.462Z,67.37
2023-02-23T11:49:00.004Z,67.57
2023-02-23T11:51:28.584Z,64.30
2023-02-23T11:53:55.802Z,63.73
2023-02-23T11:56:25.643Z,61.57
2023-02-23T11:58:59.548Z,69.47
2023-02-23T12:01:45.553Z,64.13
2023-02-23T12:04:30.369Z,64.63
2023-02-23T12:07:25.882Z,67.53
2023-02-23T12:10:00.914Z,63.73
2023-02-23T12:12:29.661Z,58.60
2023-02-23T12:15:09.527Z,60.57
2023-02-23T12:17:48.797Z,62.70
2023-02-23T12:20:21.537Z,63.00
2023-02-23T12:23:20.086Z,59.70
2023-02-23T12:25:49.144Z,64.07
2023-02-23T12:28:37.099Z,62.20
2023-02-23T12:31:24.258Z,63.23
2023-02-23T12:33:59.009Z,56.70
2023-02-23T12:36:39.112Z,51.57
2023-02-23T12:39:24.492Z,54.90
2023-02-23T12:42:15.422Z,57.17
2023-02-23T12:44:49.592Z,59.37
2023-02-23T12:47:34.325Z,56.47
2023-02-23T12:50:33.652Z,59.40
2023-02-23T12:53:21.071Z,59.47
2023-02-23T12:55:53.268Z,57.23
2023-02-23T12:58:29.481Z,56.93
2023-02-23T13:01:03.960Z,51.97
2023-02-23T13:03:51.017Z,55.00
2023-02-23T13:06:39.694Z,54.13
2023-02-23T13:09:30.228Z,53.97
2023-02-23T13:12:08.125Z,50.00
2023-02-23T13:14:39.774Z,45.63
2023-02-23T13:17:28.609Z,45.40
2023-02-23T13:20:01.555Z,43.67
2023-02-23T13:23:19.490Z,40.47
2023-02-23T13:26:04.333Z,47.97
2023-02-23T13:28:57.162Z,46.60
2023-02-23T13:31:31.126Z,44.90
2023-02-23T13:33:59.825Z,46.80
2023-02-23T13:36:29.735Z,48.20
2023-02-23T13:39:19.436Z,47.00
2023-02-23T13:41:46.039Z,43.70
2023-02-23T13:44:27.325Z,44.13
2023-02-23T13:47:06.657Z,49.23
2023-02-23T13:49:51.319Z,46.63
2023-02-23T13:52:39.829Z,45.90
2023-02-23T13:55:40.098Z,41.77
2023-02-23T13:58:16.529Z,42.17
2023-02-23T14:00:44.254Z,41.70
2023-02-23T14:03:24.259Z,41.67
2023-02-23T14:05:56.640Z,45.07
2023-02-23T14:08:37.114Z,38.40
2023-02-23T14:11:05.216Z,40.23
2023-02-23T14:13:34.355Z,36.90
2023-02-23T14:16:11.714Z,40.07
2023-02-23T14:19:31.936Z,37.80
2023-02-23T14:22:06.585Z,42.40
2023-02-23T14:24:33.035Z,38.67
2023-02-23T14:27:14.793Z,39.23
2023-02-23T14:29:46.734Z,37.53
2023-02-23T14:32:13.350Z,36.30
2023-02-23T14:34:54.214Z,38.77
2023-02-23T14:37:34.745Z,36.00
2023-02-23T14:40:08.951Z,35.43
2023-02-23T14:42:38.634Z,34.30
2023-02-23T14:45:17.959Z,36.23
2023-02-23T14:47:47.701Z,33.97
2023-02-23T14:50:25.756Z,39.23
2023-02-23T14:52:54.991Z,34.73
2023-02-23T14:55:29.096Z,37.00
2023-02-23T14:57:56.597Z,41.70
2023-02-23T15:00:28.797Z,37.93
2023-02-23T15:02:58.839Z,41.43
2023-02-23T15:05:40.926Z,40.03
2023-02-23T15:08:10.838Z,39.47
2023-02-23T15:10:40.631Z,39.50
2023-02-23T15:13:29.006Z,36.50
2023-02-23T15:15:57.680Z,39.83
2023-02-23T15:18:36.055Z,44.40
2023-02-23T15:21:13.852Z,39.47
2023-02-23T15:23:40.603Z,45.20
2023-02-23T15:26:31.790Z,46.77
2023-02-23T15:29:10.582Z,50.43
2023-02-23T15:31:41.084Z,47.37
2023-02-23T15:34:11.573Z,55.60
2023-02-23T15:36:41.163Z,47.20
2023-02-23T15:39:13.757Z,49.63
2023-02-23T15:41:43.727Z,49.13
2023-02-23T15:44:20.257Z,50.40
2023-02-23T15:46:53.061Z,55.97
2023-02-23T15:49:21.898Z,49.90
2023-02-23T15:51:52.597Z,52.30
2023-02-23T15:54:46.837Z,51.00
2023-02-23T15:57:30.221Z,50.30
2023-02-23T16:00:07.819Z,70.23
2023-02-23T16:02:36.959Z,55.57
2023-02-23T16:05:20.263Z,49.23
2023-02-23T16:07:46.747Z,46.30
2023-02-23T16:10:26.578Z,53.57
2023-02-23T16:12:54.200Z,50.77
2023-02-23T16:15:26.837Z,47.50
2023-02-23T16:18:00.159Z,52.40
2023-02-23T16:20:38.495Z,54.57
2023-02-23T16:23:06.949Z,55.90
2023-02-23T16:25:34.469Z,48.67
2023-02-23T16:28:18.036Z,47.23
2023-02-23T16:30:57.182Z,50.10
2023-02-23T16:33:28.131Z,51.90
2023-02-23T16:36:18.844Z,50.90
2023-02-23T16:39:03.688Z,46.63
2023-02-23T16:41:32.925Z,54.07
2023-02-23T16:44:05.553Z,55.10
2023-02-23T16:46:53.426Z,48.30
2023-02-23T16:49:23.259Z,51.20
2023-02-23T16:51:50.799Z,49.80
2023-02-23T16:54:17.305Z,54.63
2023-02-23T16:56:44.376Z,52.43
2023-02-23T16:59:15.757Z,57.43
2023-02-23T17:01:42.240Z,56.27
2023-02-23T17:04:15.288Z,50.77
2023-02-23T17:06:43.448Z,49.93
2023-02-23T17:09:11.168Z,60.60
2023-02-23T17:11:37.868Z,50.00
2023-02-23T17:14:04.350Z,54.63
2023-02-23T17:16:30.825Z,49.33
2023-02-23T17:18:59.502Z,46.53
2023-02-23T17:21:26.138Z,47.90
2023-02-23T17:23:53.283Z,47.37
2023-02-23T17:26:24.841Z,44.50
2023-02-23T17:28:52.212Z,44.83
2023-02-23T17:31:20.129Z,42.80
2023-02-23T17:33:47.277Z,44.63
2023-02-23T17:36:16.606Z,49.90
2023-02-23T17:38:45.902Z,49.47
2023-02-23T17:41:17.857Z,45.07
2023-02-23T17:43:44.573Z,43.90
2023-02-23T17:46:12.089Z,45.77
2023-02-23T17:48:40.650Z,40.40
2023-02-23T17:51:09.118Z,39.57
2023-02-23T17:53:36.351Z,43.83
2023-02-23T17:56:02.838Z,40.60
2023-02-23T17:58:29.755Z,46.33
2023-02-23T18:00:58.230Z,40.93
2023-02-23T18:03:25.963Z,46.30
2023-02-23T18:05:52.845Z,38.63
2023-02-23T18:08:20.203Z,42.13
2023-02-23T18:10:54.508Z,41.83
2023-02-23T18:13:21.262Z,39.33
2023-02-23T18:15:52.619Z,38.07
2023-02-23T18:18:19.260Z,37.57
2023-02-23T18:20:54.286Z,45.63
2023-02-23T18:23:21.640Z,47.23
2023-02-23T18:25:49.430Z,37.50
2023-02-23T18:28:17.435Z,38.53
2023-02-23T18:30:44.858Z,39.50
2023-02-23T18:33:12.946Z,40.03
2023-02-23T18:35:44.885Z,38.43
2023-02-23T18:38:13.788Z,35.83
2023-02-23T18:40:40.958Z,36.27
2023-02-23T18:43:07.959Z,37.97
2023-02-23T18:45:34.811Z,35.13
2023-02-23T18:48:01.328Z,37.87
2023-02-23T18:50:27.967Z,32.93
2023-02-23T18:52:56.491Z,39.63
2023-02-23T18:55:23.972Z,36.63
2023-02-23T18:57:52.671Z,36.90
2023-02-23T19:00:20.079Z,32.13
2023-02-23T19:02:47.275Z,33.73
2023-02-23T19:05:14.282Z,36.03
2023-02-23T19:07:41.150Z,34.93
2023-02-23T19:10:12.052Z,35.17
2023-02-23T19:12:39.532Z,34.73
2023-02-23T19:15:07.805Z,31.40
2023-02-23T19:17:35.103Z,34.23
2023-02-23T19:20:01.825Z,33.83
2023-02-23T19:22:29.482Z,32.27
2023-02-23T19:24:56.133Z,35.73
2023-02-23T19:27:22.892Z,32.93
2023-02-23T19:29:49.386Z,30.13
2023-02-23T19:32:16.758Z,30.67
2023-02-23T19:34:46.350Z,34.83
2023-02-23T19:37:13.226Z,34.57
2023-02-23T19:39:39.957Z,36.90
2023-02-23T19:42:07.206Z,35.73
2023-02-23T19:44:34.021Z,31.90
2023-02-23T19:47:00.558Z,31.73
2023-02-23T19:49:27.050Z,28.07
2023-02-23T19:51:53.588Z,35.57
2023-02-23T19:54:20.714Z,34.03
2023-02-23T19:56:49.809Z,31.63
2023-02-23T19:59:16.562Z,34.83
2023-02-23T20:01:45.233Z,33.17
2023-02-23T20:04:11.785Z,33.27
2023-02-23T20:06:46.806Z,34.40
2023-02-23T20:09:14.552Z,35.60
2023-02-23T20:11:42.510Z,34.70
2023-02-23T20:14:09.965Z,34.23
2023-02-23T20:16:37.200Z,36.57
2023-02-23T20:19:05.723Z,36.87
2023-02-23T20:21:32.678Z,31.17
2023-02-23T20:24:01.458Z,33.80
2023-02-23T20:26:30.898Z,32.00
2023-02-23T20:28:58.568Z,31.37
2023-02-23T20:31:36.924Z,35.27
2023-02-23T20:34:10.888Z,37.13
2023-02-23T20:36:37.782Z,35.83
2023-02-23T20:39:04.848Z,32.00
2023-02-23T20:41:31.588Z,32.60
2023-02-23T20:44:00.854Z,30.67
2023-02-23T20:46:30.654Z,32.77
2023-02-23T20:48:57.561Z,35.00
2023-02-23T20:51:23.986Z,39.63
2023-02-23T20:53:50.416Z,37.63
2023-02-23T20:56:19.205Z,31.37
2023-02-23T20:58:46.228Z,40.80
2023-02-23T21:01:23.493Z,31.33
2023-02-23T21:03:52.199Z,39.63
2023-02-23T21:06:24.461Z,40.00
2023-02-23T21:08:55.552Z,38.40
2023-02-23T21:11:27.138Z,43.40
2023-02-23T21:13:53.590Z,42.53
2023-02-23T21:16:23.658Z,47.50
2023-02-23T21:19:04.210Z,44.40
2023-02-23T21:21:42.917Z,51.77
2023-02-23T21:24:09.612Z,37.90
2023-02-23T21:26:36.629Z,35.37
2023-02-23T21:29:04.367Z,39.60
2023-02-23T21:31:31.289Z,34.10
2023-02-23T21:33:57.804Z,37.40
2023-02-23T21:36:24.269Z,40.30
2023-02-23T21:38:51.360Z,37.07
2023-02-23T21:41:18.261Z,37.23
2023-02-23T21:43:45.040Z,46.80
2023-02-23T21:46:16.607Z,33.47
2023-02-23T21:48:43.652Z,33.33
2023-02-23T21:51:13.496Z,39.97
2023-02-23T21:53:41.114Z,41.10
2023-02-23T21:56:13.191Z,34.70
2023-02-23T21:58:43.926Z,40.47
2023-02-23T22:01:31.492Z,36.10
2023-02-23T22:03:58.039Z,40.40
2023-02-23T22:06:27.754Z,32.20
2023-02-23T22:08:54.836Z,23.37
2023-02-23T22:11:27.155Z,24.07
2023-02-23T22:13:59.023Z,22.03
2023-02-23T22:16:32.193Z,25.27
2023-02-23T22:19:03.414Z,21.63
2023-02-23T22:21:39.114Z,21.40
2023-02-23T22:24:06.742Z,26.90
2023-02-23T22:26:36.070Z,23.87
2023-02-23T22:29:03.020Z,26.47
2023-02-23T22:31:29.887Z,31.60
2023-02-23T22:33:56.896Z,22.17
2023-02-23T22:36:23.537Z,23.10
2023-02-23T22:38:50.088Z,35.17
2023-02-23T22:41:16.652Z,26.80
2023-02-23T22:43:46.630Z,35.13
2023-02-23T22:46:14.482Z,33.03
2023-02-23T22:48:45.177Z,27.37
2023-02-23T22:51:14.119Z,26.10
2023-02-23T22:53:40.733Z,24.10
2023-02-23T22:56:08.473Z,37.13
2023-02-23T22:58:36.218Z,27.40
2023-02-23T23:01:05.709Z,28.50
2023-02-23T23:03:36.496Z,22.77
2023-02-23T23:06:05.358Z,26.83
2023-02-23T23:08:37.208Z,25.03
2023-02-23T23:11:09.461Z,28.40
2023-02-23T23:13:51.764Z,28.33
2023-02-23T23:16:31.003Z,27.50
2023-02-23T23:19:02.705Z,34.10
2023-02-23T23:21:32.026Z,31.67
2023-02-23T23:24:01.608Z,33.80
2023-02-23T23:26:29.120Z,34.03
2023-02-23T23:28:58.576Z,35.73
2023-02-23T23:31:29.308Z,35.00
2023-02-23T23:34:01.556Z,28.83
2023-02-23T23:36:32.390Z,30.67
2023-02-23T23:38:59.710Z,36.77
2023-02-23T23:41:28.493Z,33.80
2023-02-23T23:43:57.901Z,28.73
2023-02-23T23:46:30.745Z,32.17
2023-02-23T23:49:08.465Z,29.00
2023-02-23T23:51:50.283Z,30.17
2023-02-23T23:54:26.186Z,31.83
2023-02-23T23:56:52.757Z,26.77
2023-02-23T23:59:22.918Z,33.97
